Time;durP1;ratioP1;P1;durP2;ratioP2;P2;SDS_P1;SDS_P2;PMS_P1;PMS_P2;Temp;Humidity;BMP_temperature;BMP_pressure;BME280_temperature;BME280_humidity;BME280_pressure;Samples;Min_cycle;Max_cycle;Signal;HPM_P1;HPM_P2
2020/12/29 00:01:48;;;;;;;11.03;6.60;;;;;;;6.61;71.26;98197.00;1837642;77;25609;-80
2020/12/29 00:04:28;;;;;;;11.22;6.45;;;;;;;6.55;71.34;98208.52;1776762;78;25927;-79
2020/12/29 00:06:57;;;;;;;10.58;6.78;;;;;;;6.54;71.32;98210.89;1742021;79;27545;-80
2020/12/29 00:09:33;;;;;;;11.75;6.85;;;;;;;6.56;71.33;98212.82;1834448;77;25701;-80
2020/12/29 00:12:00;;;;;;;10.38;6.87;;;;;;;6.52;71.42;98208.16;1775939;78;25856;-80
2020/12/29 00:14:28;;;;;;;9.60;6.08;;;;;;;6.52;71.51;98194.86;1707561;81;27521;-80
2020/12/29 00:16:55;;;;;;;9.83;6.05;;;;;;;6.51;71.54;98195.88;1689878;83;25825;-80
2020/12/29 00:19:27;;;;;;;9.23;6.22;;;;;;;6.51;71.57;98194.03;1674536;82;26388;-80
2020/12/29 00:21:55;;;;;;;11.03;6.83;;;;;;;6.51;71.71;98190.55;1694222;83;25821;-80
2020/12/29 00:24:23;;;;;;;12.28;6.47;;;;;;;6.52;71.75;98192.98;1654295;84;26076;-80
2020/12/29 00:26:50;;;;;;;11.30;6.45;;;;;;;6.54;71.80;98184.30;1675712;83;27537;-80
2020/12/29 00:29:18;;;;;;;11.68;6.90;;;;;;;6.54;71.81;98178.16;1674896;83;26300;-79
2020/12/29 00:31:46;;;;;;;16.55;8.05;;;;;;;6.53;71.85;98178.67;1693038;83;25766;-79
2020/12/29 00:34:14;;;;;;;12.55;7.78;;;;;;;6.52;71.97;98178.36;1653825;84;25750;-80
2020/12/29 00:36:41;;;;;;;10.43;6.33;;;;;;;6.55;71.99;98179.77;1672947;83;26377;-79
2020/12/29 00:39:09;;;;;;;11.28;6.95;;;;;;;6.52;72.07;98171.70;1650990;84;26591;-80
2020/12/29 00:41:36;;;;;;;11.65;6.25;;;;;;;6.51;72.15;98174.59;1694440;83;25810;-79
2020/12/29 00:44:04;;;;;;;11.00;6.37;;;;;;;6.51;72.18;98161.30;1628715;84;26308;-79
2020/12/29 00:46:32;;;;;;;11.73;6.53;;;;;;;6.51;72.25;98162.63;1669659;84;25828;-80
2020/12/29 00:48:59;;;;;;;9.13;6.25;;;;;;;6.50;72.35;98156.48;1681318;82;25803;-79
2020/12/29 00:51:27;;;;;;;12.28;6.60;;;;;;;6.50;72.34;98144.52;1690484;83;27588;-79
2020/12/29 00:53:57;;;;;;;13.05;7.00;;;;;;;6.49;72.31;98136.77;1653775;84;25828;-80
2020/12/29 00:56:25;;;;;;;13.05;6.70;;;;;;;6.49;72.29;98133.61;1671515;84;25932;-79
2020/12/29 00:58:54;;;;;;;11.93;7.10;;;;;;;6.46;72.33;98126.06;1675178;83;25987;-80
2020/12/29 01:01:23;;;;;;;11.20;6.28;;;;;;;6.45;72.37;98118.31;1655375;83;26152;-79
2020/12/29 01:04:09;;;;;;;12.15;6.50;;;;;;;6.44;72.37;98116.67;1664132;83;28436;-79
2020/12/29 01:06:37;;;;;;;10.82;6.95;;;;;;;6.41;72.43;98109.15;1665905;82;25705;-80
2020/12/29 01:09:06;;;;;;;11.43;6.95;;;;;;;6.38;72.57;98115.72;1675755;83;26425;-79
2020/12/29 01:11:35;;;;;;;15.13;7.50;;;;;;;6.36;72.60;98101.83;1670166;82;26067;-79
2020/12/29 01:14:04;;;;;;;11.68;6.72;;;;;;;6.34;72.69;98096.44;1656000;83;26170;-79
2020/12/29 01:16:34;;;;;;;10.78;6.65;;;;;;;6.35;72.74;98098.86;1668608;83;27549;-79
2020/12/29 01:19:02;;;;;;;12.93;6.67;;;;;;;6.34;72.72;98105.23;1687238;83;25846;-79
2020/12/29 01:21:30;;;;;;;8.70;6.00;;;;;;;6.33;72.74;98092.16;1691065;84;25768;-80
2020/12/29 01:23:58;;;;;;;13.75;7.87;;;;;;;6.28;72.69;98091.49;1649400;84;26497;-79
2020/12/29 01:26:26;;;;;;;10.28;6.45;;;;;;;6.24;72.78;98087.11;1689936;83;25917;-80
2020/12/29 01:28:54;;;;;;;9.35;6.33;;;;;;;6.19;72.79;98089.64;1677161;84;27523;-80
2020/12/29 01:31:31;;;;;;;10.45;5.97;;;;;;;6.15;72.93;98084.98;1658189;84;25852;-79
2020/12/29 01:34:07;;;;;;;10.65;6.25;;;;;;;6.14;72.95;98075.36;1834909;77;25615;-80
2020/12/29 01:36:34;;;;;;;10.38;6.42;;;;;;;6.06;73.12;98072.48;1791163;79;25801;-80
2020/12/29 01:39:02;;;;;;;14.20;6.75;;;;;;;6.02;73.19;98069.98;1730485;79;28413;-79
2020/12/29 01:41:32;;;;;;;13.35;6.97;;;;;;;5.98;73.32;98066.64;1792046;79;25697;-80
2020/12/29 01:44:16;;;;;;;9.28;6.55;;;;;;;5.95;73.40;98076.37;1764055;79;25800;-80
2020/12/29 01:46:47;;;;;;;10.82;7.08;;;;;;;5.95;73.63;98068.39;1726204;82;26408;-79
2020/12/29 01:49:14;;;;;;;14.85;7.67;;;;;;;5.94;73.61;98058.81;1654817;82;32514;-80
2020/12/29 01:51:41;;;;;;;11.35;7.15;;;;;;;5.91;73.74;98054.75;1709650;82;27615;-79
2020/12/29 01:54:09;;;;;;;10.50;6.83;;;;;;;5.91;73.76;98059.23;1702951;82;25901;-79
2020/12/29 01:56:39;;;;;;;15.38;7.12;;;;;;;5.89;73.84;98062.12;1743373;81;25754;-79
2020/12/29 01:59:11;;;;;;;;;;;;;;;5.88;73.93;98056.50;1734390;81;25890;-80
2020/12/29 02:01:39;;;;;;;;;;;;;;;5.87;74.06;98050.91;1731162;81;26179;-80
2020/12/29 02:04:12;;;;;;;13.98;7.42;;;;;;;5.85;74.19;98059.61;1745397;81;28243;-80
2020/12/29 02:06:49;;;;;;;12.78;7.15;;;;;;;5.90;74.26;98053.65;1839592;77;26370;-79
2020/12/29 02:09:17;;;;;;;14.33;7.62;;;;;;;5.86;74.30;98055.12;1802422;78;25753;-79
2020/12/29 02:11:44;;;;;;;12.35;7.97;;;;;;;5.87;74.32;98050.91;1723428;78;28482;-79
2020/12/29 02:14:11;;;;;;;13.55;8.90;;;;;;;5.88;74.31;98040.56;1712293;82;25715;-80
2020/12/29 02:16:42;;;;;;;10.68;7.37;;;;;;;5.90;74.31;98042.48;1711950;82;26130;-79
2020/12/29 02:19:10;;;;;;;11.78;8.00;;;;;;;5.90;74.33;98041.69;1738163;82;25759;-79
2020/12/29 02:21:38;;;;;;;13.68;7.70;;;;;;;5.91;74.33;98035.33;1687417;82;25480;-79
2020/12/29 02:24:07;;;;;;;11.95;8.18;;;;;;;5.88;74.33;98032.59;1685747;82;28435;-81
2020/12/29 02:26:35;;;;;;;11.93;7.67;;;;;;;5.89;74.37;98028.09;1711889;82;26119;-81
2020/12/29 02:29:06;;;;;;;11.97;8.03;;;;;;;5.91;74.40;98020.20;1730246;82;25826;-79
2020/12/29 02:31:34;;;;;;;15.03;9.68;;;;;;;5.91;74.33;98016.73;1711739;82;26511;-79
2020/12/29 02:34:01;;;;;;;14.98;8.65;;;;;;;5.90;74.39;98013.26;1734175;82;25795;-79
2020/12/29 02:36:28;;;;;;;9.63;6.90;;;;;;;5.89;74.38;98007.66;1689102;82;27814;-80
2020/12/29 02:38:56;;;;;;;12.33;8.13;;;;;;;5.88;74.35;97999.38;1687655;82;25980;-79
2020/12/29 02:41:23;;;;;;;13.18;8.18;;;;;;;5.86;74.37;97991.36;1711710;82;25966;-80
2020/12/29 02:43:51;;;;;;;11.78;7.30;;;;;;;5.85;74.38;97991.05;1737951;82;25796;-80
2020/12/29 02:46:18;;;;;;;13.32;7.53;;;;;;;5.82;74.48;97984.30;1682597;82;25808;-80
2020/12/29 02:48:45;;;;;;;14.20;7.85;;;;;;;5.80;74.43;97981.05;1665053;82;27539;-79
2020/12/29 02:51:16;;;;;;;15.20;8.63;;;;;;;5.79;74.54;97979.95;1712136;82;25968;-79
2020/12/29 02:53:43;;;;;;;10.38;7.30;;;;;;;5.80;74.58;97976.25;1734397;82;25782;-78
2020/12/29 02:56:11;;;;;;;10.93;7.60;;;;;;;5.82;74.57;97976.33;1687588;82;25840;-79
2020/12/29 02:58:38;;;;;;;12.82;7.55;;;;;;;5.81;74.55;97972.58;1683703;83;25975;-79
2020/12/29 03:01:05;;;;;;;15.25;9.08;;;;;;;5.78;74.49;97960.54;1705017;82;28253;-79
2020/12/29 03:03:33;;;;;;;15.08;8.18;;;;;;;5.77;74.60;97963.42;1737761;81;26154;-79
2020/12/29 03:06:00;;;;;;;12.40;8.08;;;;;;;5.72;74.56;97954.78;1666514;82;25883;-80
2020/12/29 03:08:27;;;;;;;11.53;7.53;;;;;;;5.70;74.64;97958.69;1691206;82;26429;-79
2020/12/29 03:10:55;;;;;;;12.75;7.80;;;;;;;5.69;74.69;97957.08;1717172;82;26495;-79
2020/12/29 03:13:22;;;;;;;11.88;7.92;;;;;;;5.68;74.78;97955.44;1721680;82;28512;-79
2020/12/29 03:15:49;;;;;;;15.55;9.55;;;;;;;5.69;74.79;97953.09;1677563;82;25869;-79
2020/12/29 03:18:17;;;;;;;12.75;8.45;;;;;;;5.69;74.87;97959.20;1690974;82;25859;-80
2020/12/29 03:20:44;;;;;;;13.22;9.00;;;;;;;5.69;74.81;97952.55;1706899;82;26472;-80
2020/12/29 03:23:11;;;;;;;16.15;8.93;;;;;;;5.67;74.81;97947.98;1726826;82;25710;-80
2020/12/29 03:25:39;;;;;;;13.83;8.83;;;;;;;5.67;74.79;97949.31;1689860;82;27551;-79
2020/12/29 03:28:06;;;;;;;13.38;8.10;;;;;;;5.66;74.78;97946.38;1685422;82;26231;-79
2020/12/29 03:30:33;;;;;;;12.33;8.20;;;;;;;5.66;74.83;97945.05;1664252;82;25752;-80
2020/12/29 03:33:01;;;;;;;12.73;8.30;;;;;;;5.64;74.71;97944.97;1728915;82;26127;-79
2020/12/29 03:35:28;;;;;;;16.30;10.45;;;;;;;5.63;74.75;97938.84;1672302;83;25969;-79
2020/12/29 03:37:55;;;;;;;17.55;10.93;;;;;;;5.63;74.80;97942.81;1649548;85;28465;-79
2020/12/29 03:40:23;;;;;;;12.60;8.58;;;;;;;5.62;74.74;97943.05;1653215;86;25958;-79
2020/12/29 03:42:50;;;;;;;16.87;10.72;;;;;;;5.59;74.80;97944.29;1678747;84;25824;-79
2020/12/29 03:45:17;;;;;;;16.55;10.25;;;;;;;5.59;74.95;97936.33;1626477;84;26018;-79
2020/12/29 03:47:45;;;;;;;14.63;10.38;;;;;;;5.60;74.93;97935.31;1626899;85;25968;-79
2020/12/29 03:50:12;;;;;;;17.73;11.30;;;;;;;5.60;74.98;97931.33;1646003;85;27324;-80
2020/12/29 03:52:40;;;;;;;15.78;9.18;;;;;;;5.62;75.00;97931.09;1680446;84;25953;-80
2020/12/29 03:55:07;;;;;;;14.65;9.00;;;;;;;5.64;75.02;97925.05;1647481;84;25946;-79
2020/12/29 03:57:35;;;;;;;13.72;8.45;;;;;;;5.64;74.99;97916.57;1637882;84;26216;-79
2020/12/29 04:00:06;;;;;;;15.60;10.18;;;;;;;5.64;75.03;97907.28;1657721;84;25853;-79
2020/12/29 04:02:35;;;;;;;15.98;10.48;;;;;;;5.65;75.01;97915.52;1677632;84;27646;-79
2020/12/29 04:05:02;;;;;;;17.48;10.10;;;;;;;5.66;75.08;97917.16;1620443;84;25905;-79
2020/12/29 04:07:29;;;;;;;15.00;9.78;;;;;;;5.69;75.09;97915.38;1635585;84;25873;-79
2020/12/29 04:09:57;;;;;;;18.25;13.25;;;;;;;5.71;75.07;97896.59;1652367;84;26727;-79
2020/12/29 04:12:24;;;;;;;20.60;12.25;;;;;;;5.71;75.05;97896.05;1630147;84;25972;-79
2020/12/29 04:14:51;;;;;;;17.65;10.35;;;;;;;5.72;75.05;97898.19;1585299;86;27654;-80
2020/12/29 04:17:19;;;;;;;16.90;10.00;;;;;;;5.73;75.07;97899.30;1606313;86;26489;-80
2020/12/29 04:19:46;;;;;;;18.85;9.90;;;;;;;5.76;75.10;97890.89;1614816;86;25860;-79
2020/12/29 04:22:13;;;;;;;16.62;10.00;;;;;;;5.77;75.04;97893.86;1664586;84;25459;-79
2020/12/29 04:24:41;;;;;;;14.73;8.75;;;;;;;5.79;75.04;97888.31;1593875;86;26321;-79
2020/12/29 04:27:08;;;;;;;14.73;9.53;;;;;;;5.80;75.00;97890.74;1602185;86;27680;-79
2020/12/29 04:29:35;;;;;;;15.88;9.75;;;;;;;5.83;74.98;97886.84;1624484;86;25822;-79
2020/12/29 04:32:03;;;;;;;18.55;9.83;;;;;;;5.83;74.92;97886.33;1644547;86;26408;-79
2020/12/29 04:34:30;;;;;;;15.50;9.73;;;;;;;5.84;74.88;97881.83;1593022;86;26540;-80
2020/12/29 04:36:57;;;;;;;12.68;9.60;;;;;;;5.84;74.87;97873.35;1621236;85;26509;-80
2020/12/29 04:39:26;;;;;;;15.08;8.85;;;;;;;5.86;74.89;97877.14;1626489;86;27337;-80
2020/12/29 04:41:58;;;;;;;17.45;10.28;;;;;;;5.87;74.86;97877.41;1630239;86;26531;-80
2020/12/29 04:44:27;;;;;;;21.40;11.85;;;;;;;5.88;74.86;97873.20;1607332;87;25891;-79
2020/12/29 04:46:55;;;;;;;21.35;12.80;;;;;;;5.89;74.88;97876.16;1623156;86;25772;-79
2020/12/29 04:49:23;;;;;;;18.85;10.85;;;;;;;5.91;74.86;97874.09;1613135;86;25720;-79
2020/12/29 04:51:52;;;;;;;14.80;10.23;;;;;;;5.92;74.88;97870.39;1614259;86;28635;-79
2020/12/29 04:54:19;;;;;;;21.75;12.43;;;;;;;5.94;74.84;97869.67;1600250;85;25823;-79
2020/12/29 04:56:52;;;;;;;32.53;17.42;;;;;;;5.95;74.84;97865.97;1641000;85;25900;-79
2020/12/29 04:59:29;;;;;;;19.20;12.33;;;;;;;6.02;74.76;97861.90;1814873;77;25674;-79
2020/12/29 05:01:59;;;;;;;16.65;10.53;;;;;;;5.96;74.79;97860.14;1750775;79;25841;-79
2020/12/29 05:04:28;;;;;;;12.23;8.90;;;;;;;5.97;74.82;97861.23;1778801;79;28233;-79
2020/12/29 05:06:57;;;;;;;11.73;8.68;;;;;;;5.99;74.74;97858.34;1750254;79;26231;-79
2020/12/29 05:09:27;;;;;;;11.20;7.90;;;;;;;6.02;74.77;97857.41;1709690;80;25779;-79
2020/12/29 05:11:55;;;;;;;11.78;8.93;;;;;;;6.04;74.80;97856.66;1709345;82;25826;-79
2020/12/29 05:14:23;;;;;;;12.47;8.63;;;;;;;6.06;74.76;97853.26;1697472;82;25934;-79
2020/12/29 05:16:51;;;;;;;12.18;9.23;;;;;;;6.08;74.78;97857.83;1705695;82;27624;-79
2020/12/29 05:19:21;;;;;;;14.68;9.73;;;;;;;6.10;74.67;97846.45;1680844;82;25837;-79
2020/12/29 05:21:49;;;;;;;17.35;10.78;;;;;;;6.13;74.73;97843.36;1662775;82;25817;-80
2020/12/29 05:24:22;;;;;;;13.95;9.73;;;;;;;6.15;74.71;97839.96;1689512;82;25650;-79
2020/12/29 05:26:54;;;;;;;13.90;9.38;;;;;;;6.19;74.65;97837.65;1714408;82;25778;-79
2020/12/29 05:29:23;;;;;;;13.93;8.58;;;;;;;6.21;74.62;97838.23;1684621;83;28589;-79
2020/12/29 05:31:52;;;;;;;13.65;10.13;;;;;;;6.24;74.64;97843.11;1674613;83;26351;-79
2020/12/29 05:34:25;;;;;;;11.50;8.83;;;;;;;6.28;74.63;97840.80;1707590;82;26447;-79
2020/12/29 05:36:55;;;;;;;14.28;9.10;;;;;;;6.31;74.59;97840.36;1703636;82;26301;-79
2020/12/29 05:39:26;;;;;;;14.27;9.13;;;;;;;6.33;74.53;97835.63;1646094;82;26140;-80
2020/12/29 05:42:03;;;;;;;24.82;15.35;;;;;;;6.42;74.54;97828.92;1856509;76;25773;-79
2020/12/29 05:44:34;;;;;;;20.30;11.93;;;;;;;6.39;74.54;97832.05;1795648;77;26456;-80
2020/12/29 05:47:04;;;;;;;11.63;8.73;;;;;;;6.41;74.46;97825.48;1752714;79;27306;-80
2020/12/29 05:49:32;;;;;;;16.35;8.88;;;;;;;6.43;74.42;97828.72;1767770;79;25753;-80
2020/12/29 05:52:00;;;;;;;17.42;11.15;;;;;;;6.45;74.40;97825.31;1690789;81;25824;-79
2020/12/29 05:54:27;;;;;;;18.02;11.88;;;;;;;6.47;74.41;97821.09;1730218;80;25819;-80
2020/12/29 05:56:55;;;;;;;13.65;8.53;;;;;;;6.50;74.38;97817.98;1724178;79;25874;-80
2020/12/29 05:59:24;;;;;;;10.48;7.67;;;;;;;6.53;74.34;97810.86;1773524;79;27528;-79
2020/12/29 06:01:54;;;;;;;11.83;7.78;;;;;;;6.53;74.28;97814.34;1734650;81;26483;-82
2020/12/29 06:04:22;;;;;;;9.75;7.17;;;;;;;6.55;74.29;97806.94;1728520;79;26417;-81
2020/12/29 06:06:50;;;;;;;12.85;8.68;;;;;;;6.58;74.24;97805.68;1753887;79;25852;-79
2020/12/29 06:09:20;;;;;;;23.98;12.05;;;;;;;6.59;74.21;97797.46;1778594;79;26208;-80
2020/12/29 06:11:53;;;;;;;12.15;9.18;;;;;;;6.61;74.08;97797.22;1751196;78;28507;-80
2020/12/29 06:14:26;;;;;;;12.23;8.93;;;;;;;6.60;74.14;97788.46;1708049;81;25797;-79
2020/12/29 06:16:56;;;;;;;15.40;9.48;;;;;;;6.61;74.09;97790.06;1742072;81;26494;-79
2020/12/29 06:19:30;;;;;;;16.52;9.33;;;;;;;6.62;74.09;97789.03;1736772;81;25803;-80
2020/12/29 06:22:10;;;;;;;13.45;10.35;;;;;;;6.62;74.09;97781.06;1676664;82;25768;-80
2020/12/29 06:24:45;;;;;;;14.80;10.08;;;;;;;6.61;74.14;97776.77;1701218;82;27538;-79
2020/12/29 06:27:14;;;;;;;17.87;10.82;;;;;;;6.62;74.12;97783.72;1721992;82;25705;-79
2020/12/29 06:29:44;;;;;;;15.03;10.85;;;;;;;6.63;74.16;97780.00;1739404;81;25792;-79
2020/12/29 06:32:15;;;;;;;20.52;13.20;;;;;;;6.65;74.24;97777.13;1687937;82;26271;-79
2020/12/29 06:34:44;;;;;;;16.17;9.80;;;;;;;6.66;74.16;97785.39;1691400;81;25940;-79
2020/12/29 06:37:20;;;;;;;14.55;9.18;;;;;;;6.67;74.22;97783.03;1690776;82;27331;-79
2020/12/29 06:39:51;;;;;;;12.95;9.03;;;;;;;6.67;74.31;97779.83;1722861;81;26032;-79
2020/12/29 06:42:19;;;;;;;21.68;11.97;;;;;;;6.66;74.34;97774.23;1669430;83;25849;-79
2020/12/29 06:44:55;;;;;;;12.30;8.50;;;;;;;6.68;74.56;97772.67;1670457;82;26494;-79
2020/12/29 06:47:26;;;;;;;11.45;7.67;;;;;;;6.68;74.61;97777.47;1705255;82;25912;-81
2020/12/29 06:49:55;;;;;;;12.93;7.95;;;;;;;6.68;74.75;97784.13;1728320;82;27517;-79
2020/12/29 06:52:29;;;;;;;13.20;7.80;;;;;;;6.70;74.92;97785.22;1714850;82;25816;-79
2020/12/29 06:54:59;;;;;;;13.28;8.10;;;;;;;6.70;75.01;97781.22;1694351;82;25836;-79
2020/12/29 06:57:41;;;;;;;9.73;7.23;;;;;;;6.70;75.09;97781.22;1666937;84;26741;-79
2020/12/29 07:00:17;;;;;;;10.13;7.08;;;;;;;6.70;75.18;97774.06;1686521;83;25799;-80
2020/12/29 07:02:51;;;;;;;9.85;6.92;;;;;;;6.70;75.23;97770.07;1689217;82;27550;-78
2020/12/29 07:05:26;;;;;;;13.28;8.10;;;;;;;6.70;75.38;97768.74;1661072;82;25747;-80
2020/12/29 07:08:06;;;;;;;11.40;7.60;;;;;;;6.70;75.54;97768.74;1676482;82;26156;-80
2020/12/29 07:10:46;;;;;;;11.05;8.05;;;;;;;6.76;75.74;97765.16;1791301;79;25970;-79
2020/12/29 07:13:18;;;;;;;16.27;8.98;;;;;;;6.73;75.91;97764.81;1696083;81;25719;-79
2020/12/29 07:15:54;;;;;;;18.00;9.95;;;;;;;6.74;76.18;97765.09;1695827;82;28279;-80
2020/12/29 07:18:27;;;;;;;16.32;9.95;;;;;;;6.72;76.26;97758.67;1716805;81;26210;-79
2020/12/29 07:20:57;;;;;;;19.02;10.08;;;;;;;6.72;76.42;97760.01;1664975;82;25812;-81
2020/12/29 07:23:31;;;;;;;14.58;10.05;;;;;;;6.72;76.49;97761.85;1690308;82;25893;-79
2020/12/29 07:25:59;;;;;;;17.05;10.82;;;;;;;6.71;76.62;97757.08;1667115;82;25807;-79
2020/12/29 07:28:30;;;;;;;14.90;10.70;;;;;;;6.70;76.71;97754.11;1713841;82;27469;-79
2020/12/29 07:30:57;;;;;;;19.60;11.93;;;;;;;6.69;76.88;97755.14;1667065;82;26223;-79
2020/12/29 07:33:26;;;;;;;21.60;13.25;;;;;;;6.71;77.05;97760.25;1684770;82;25828;-79
2020/12/29 07:35:54;;;;;;;16.25;11.57;;;;;;;6.72;77.07;97754.69;1678536;83;26432;-79
2020/12/29 07:38:24;;;;;;;14.87;10.85;;;;;;;6.71;77.19;97757.08;1696959;82;26148;-79
2020/12/29 07:40:54;;;;;;;18.80;11.55;;;;;;;6.71;77.20;97760.25;1660869;82;27543;-80
2020/12/29 07:43:22;;;;;;;18.30;12.63;;;;;;;6.71;77.31;97754.42;1656398;82;25856;-79
2020/12/29 07:45:49;;;;;;;17.65;10.88;;;;;;;6.71;77.45;97759.73;1664793;83;25854;-79
2020/12/29 07:48:17;;;;;;;19.98;10.72;;;;;;;6.71;77.54;97754.42;1666578;83;25767;-80
2020/12/29 07:50:44;;;;;;;18.52;10.03;;;;;;;6.70;77.70;97754.11;1640316;82;25445;-79
2020/12/29 07:53:13;;;;;;;14.30;9.40;;;;;;;6.69;77.90;97757.80;1689870;82;27531;-78
2020/12/29 07:55:43;;;;;;;19.80;11.63;;;;;;;6.66;78.04;97760.13;1681078;82;25861;-79
2020/12/29 07:58:18;;;;;;;20.52;11.83;;;;;;;6.69;78.26;97762.33;1805885;77;25685;-79
2020/12/29 08:00:46;;;;;;;23.80;11.45;;;;;;;6.63;78.53;97766.70;1740973;81;25851;-79
2020/12/29 08:03:13;;;;;;;22.30;11.43;;;;;;;6.62;78.60;97762.95;1744656;80;27324;-79
2020/12/29 08:05:42;;;;;;;29.27;11.55;;;;;;;6.61;78.76;97759.48;1776232;80;26374;-79
2020/12/29 08:08:11;;;;;;;19.02;11.57;;;;;;;6.60;78.83;97765.86;1757691;80;25809;-79
2020/12/29 08:10:42;;;;;;;20.43;12.20;;;;;;;6.57;79.00;97758.33;1784526;80;25851;-79
2020/12/29 08:13:16;;;;;;;20.30;10.93;;;;;;;6.56;79.17;97763.88;1697429;80;25770;-80
2020/12/29 08:15:44;;;;;;;18.80;11.90;;;;;;;6.53;79.37;97763.81;1707279;82;27561;-79
2020/12/29 08:18:17;;;;;;;28.07;14.68;;;;;;;6.51;79.48;97772.55;1641683;85;26973;-79
2020/12/29 08:20:50;;;;;;;23.62;13.55;;;;;;;6.49;79.73;97775.95;1612337;86;25893;-81
2020/12/29 08:23:20;;;;;;;19.82;12.90;;;;;;;6.50;79.92;97779.43;1679857;84;25412;-79
2020/12/29 08:25:53;;;;;;;25.48;14.80;;;;;;;6.48;80.05;97782.30;1681938;84;25826;-81
2020/12/29 08:28:26;;;;;;;464.30;285.20;;;;;;;6.44;80.12;97773.16;1635276;85;27605;-80
2020/12/29 08:31:02;;;;;;;121.62;68.65;;;;;;;6.48;80.38;97762.89;1833748;77;25652;-79
2020/12/29 08:33:32;;;;;;;228.83;146.07;;;;;;;6.43;80.49;97770.22;1792802;78;25772;-80
2020/12/29 08:36:02;;;;;;;46.23;31.48;;;;;;;6.42;80.70;97765.93;1753157;78;27321;-81
2020/12/29 08:38:44;;;;;;;26.85;18.50;;;;;;;6.42;80.90;97761.94;1764675;80;26394;-81
2020/12/29 08:41:29;;;;;;;42.13;31.87;;;;;;;6.42;80.95;97767.27;1745063;80;26402;-79
2020/12/29 08:44:00;;;;;;;37.83;27.42;;;;;;;6.41;81.02;97762.18;1742738;80;25857;-78
2020/12/29 08:46:33;;;;;;;29.10;20.05;;;;;;;6.41;81.30;97771.48;1696934;83;25913;-82
2020/12/29 08:49:05;;;;;;;27.15;19.42;;;;;;;6.41;81.31;97770.97;1694367;82;27643;-80
2020/12/29 08:51:40;;;;;;;36.48;23.30;;;;;;;6.40;81.49;97766.68;1645533;83;25903;-75
2020/12/29 08:54:17;;;;;;;39.05;24.70;;;;;;;6.41;81.72;97768.83;1704806;82;26348;-81
2020/12/29 08:56:45;;;;;;;32.95;19.85;;;;;;;6.42;81.81;97773.91;1705629;82;25808;-80
2020/12/29 08:59:19;;;;;;;55.58;43.60;;;;;;;6.41;81.99;97768.83;1713214;83;26161;-81
2020/12/29 09:01:56;;;;;;;41.53;27.32;;;;;;;6.42;82.15;97772.58;1659531;82;28503;-80
2020/12/29 09:04:36;;;;;;;38.02;28.85;;;;;;;6.43;82.26;97770.22;1664445;82;25798;-79
2020/12/29 09:07:16;;;;;;;49.30;37.10;;;;;;;6.46;82.35;97772.41;1680688;83;26195;-80
2020/12/29 09:10:07;;;;;;;33.67;25.55;;;;;;;6.45;82.51;97770.80;1729828;81;25828;-80
2020/12/29 09:12:37;;;;;;;56.23;38.63;;;;;;;6.47;82.56;97769.23;1689611;80;26187;-80
2020/12/29 09:15:08;;;;;;;30.43;19.05;;;;;;;6.45;82.61;97773.47;1691240;82;26415;-78
2020/12/29 09:17:43;;;;;;;42.83;27.07;;;;;;;6.47;82.78;97773.22;1718219;82;26519;-81
2020/12/29 09:20:24;;;;;;;37.48;21.27;;;;;;;6.47;82.82;97775.88;1714016;82;26168;-81
2020/12/29 09:23:11;;;;;;;30.80;18.12;;;;;;;6.47;82.95;97772.71;1691252;82;25980;-81
2020/12/29 09:25:45;;;;;;;37.38;22.27;;;;;;;6.50;83.05;97770.13;1673625;82;26457;-81
2020/12/29 09:28:26;;;;;;;33.55;21.12;;;;;;;6.50;83.09;97772.78;1713232;82;26215;-81
2020/12/29 09:31:07;;;;;;;31.95;19.90;;;;;;;6.53;83.22;97765.66;1712969;82;25822;-80
2020/12/29 09:33:37;;;;;;;23.67;14.85;;;;;;;6.58;83.49;97764.45;1633449;85;25974;-80
2020/12/29 09:36:25;;;;;;;30.60;18.60;;;;;;;6.60;83.45;97766.37;1687031;83;25706;-81
2020/12/29 09:38:54;;;;;;;103.60;49.27;;;;;;;6.63;83.37;97763.26;1685476;82;25928;-82
2020/12/29 09:41:23;;;;;;;98.25;54.30;;;;;;;6.68;83.46;97774.81;1696638;83;26738;-81
2020/12/29 09:43:50;;;;;;;26.87;14.43;;;;;;;6.71;83.43;97774.87;1654449;83;26574;-81
2020/12/29 09:46:18;;;;;;;12.60;8.03;;;;;;;6.73;83.64;97776.27;1667773;83;25495;-81
2020/12/29 09:48:45;;;;;;;29.42;15.28;;;;;;;6.72;83.73;97786.61;1666040;85;26716;-80
2020/12/29 09:51:13;;;;;;;22.32;12.65;;;;;;;6.70;83.69;97786.03;1667699;83;25902;-80
2020/12/29 09:53:40;;;;;;;9.48;5.80;;;;;;;6.70;84.41;97793.19;1638736;83;27554;-81
2020/12/29 09:56:08;;;;;;;11.15;5.33;;;;;;;6.68;84.84;97800.59;1676950;82;26132;-81
2020/12/29 09:58:35;;;;;;;9.75;5.45;;;;;;;6.67;84.92;97797.66;1681482;83;25881;-80
2020/12/29 10:01:02;;;;;;;11.30;6.12;;;;;;;6.67;84.74;97809.62;1688107;82;25839;-79
2020/12/29 10:03:32;;;;;;;12.18;9.08;;;;;;;6.66;84.74;97812.80;1600860;85;25825;-80
2020/12/29 10:05:59;;;;;;;9.30;6.28;;;;;;;6.65;84.69;97814.37;1678205;83;27612;-80
2020/12/29 10:08:26;;;;;;;16.80;8.10;;;;;;;6.64;84.64;97822.86;1652782;85;25926;-82
2020/12/29 10:10:54;;;;;;;18.30;10.50;;;;;;;6.63;84.88;97836.40;1706235;82;25915;-82
2020/12/29 10:13:21;;;;;;;18.52;9.93;;;;;;;6.60;84.44;97841.65;1628534;84;26557;-81
2020/12/29 10:15:48;;;;;;;13.13;7.47;;;;;;;6.59;84.75;97849.32;1645987;85;26258;-82
2020/12/29 10:18:16;;;;;;;11.45;7.37;;;;;;;6.54;84.74;97863.02;1647009;85;28741;-82
2020/12/29 10:20:44;;;;;;;7.22;4.65;;;;;;;6.48;84.62;97874.03;1668552;85;25951;-82
2020/12/29 10:23:11;;;;;;;7.70;5.53;;;;;;;6.39;84.14;97886.56;1623777;87;25999;-82
2020/12/29 10:25:39;;;;;;;6.85;4.55;;;;;;;6.27;84.00;97895.80;1646212;84;26269;-81
2020/12/29 10:28:06;;;;;;;13.05;7.55;;;;;;;6.18;83.65;97898.47;1675997;83;25815;-78
2020/12/29 10:30:33;;;;;;;8.33;5.55;;;;;;;6.11;83.76;97907.06;1721532;81;27549;-79
2020/12/29 10:33:00;;;;;;;14.28;6.08;;;;;;;6.04;83.80;97915.63;1697824;81;25896;-78
2020/12/29 10:35:28;;;;;;;8.15;4.12;;;;;;;5.99;84.21;97924.27;1690140;81;25983;-80
2020/12/29 10:37:55;;;;;;;10.03;5.47;;;;;;;5.95;83.94;97932.39;1689353;83;26197;-79
2020/12/29 10:40:22;;;;;;;29.05;15.72;;;;;;;5.87;83.29;97939.33;1722444;81;26060;-79
2020/12/29 10:42:50;;;;;;;17.40;9.50;;;;;;;5.82;83.73;97960.90;1643399;83;28495;-79
2020/12/29 10:45:17;;;;;;;23.40;12.75;;;;;;;5.75;83.51;97963.63;1690076;83;25788;-78
2020/12/29 10:47:45;;;;;;;16.35;8.43;;;;;;;5.69;83.84;97971.69;1701545;82;26029;-79
2020/12/29 10:50:12;;;;;;;17.30;12.55;;;;;;;5.65;83.96;97983.75;1698487;83;26438;-79
2020/12/29 10:52:39;;;;;;;12.05;7.35;;;;;;;5.62;84.14;97986.86;1644776;83;25780;-80
2020/12/29 10:55:06;;;;;;;21.45;10.45;;;;;;;5.61;84.10;97983.89;1681428;83;28429;-78
2020/12/29 10:57:34;;;;;;;24.23;11.55;;;;;;;5.55;83.73;97990.08;1689115;83;25634;-78
2020/12/29 11:00:01;;;;;;;14.70;7.22;;;;;;;5.47;83.53;98000.48;1717879;82;25368;-79
2020/12/29 11:02:29;;;;;;;17.05;8.73;;;;;;;5.40;83.87;98015.64;1688362;82;25921;-79
2020/12/29 11:04:56;;;;;;;11.08;7.30;;;;;;;5.34;83.74;98016.00;1693819;83;25767;-79
2020/12/29 11:07:24;;;;;;;14.15;8.10;;;;;;;5.32;83.76;98023.88;1669422;84;27318;-79
2020/12/29 11:09:51;;;;;;;13.70;8.33;;;;;;;5.27;83.88;98026.35;1713048;83;26197;-79
2020/12/29 11:12:18;;;;;;;13.40;8.25;;;;;;;5.24;84.35;98026.77;1672036;82;26144;-78
2020/12/29 11:14:46;;;;;;;19.52;10.00;;;;;;;5.21;84.36;98041.30;1657511;83;26396;-79
2020/12/29 11:17:13;;;;;;;17.87;9.38;;;;;;;5.20;84.47;98054.27;1686458;82;25928;-79
2020/12/29 11:19:40;;;;;;;14.28;8.93;;;;;;;5.20;84.41;98064.87;1681565;84;27541;-78
2020/12/29 11:22:08;;;;;;;11.57;7.60;;;;;;;5.20;84.66;98070.18;1685215;83;25937;-79
2020/12/29 11:24:35;;;;;;;12.60;8.03;;;;;;;5.21;85.41;98079.78;1668479;83;25729;-78
2020/12/29 11:27:02;;;;;;;12.25;7.92;;;;;;;5.19;84.88;98097.77;1684690;82;25857;-79
2020/12/29 11:29:30;;;;;;;8.75;6.78;;;;;;;5.21;84.96;98100.19;1684730;84;25868;-78
2020/12/29 11:31:57;;;;;;;12.73;8.50;;;;;;;5.23;85.41;98110.08;1644854;83;27532;-77
2020/12/29 11:34:25;;;;;;;12.88;7.80;;;;;;;5.22;85.34;98118.55;1627710;83;25892;-79
2020/12/29 11:36:52;;;;;;;12.65;8.75;;;;;;;5.24;85.57;98125.78;1676000;83;26497;-79
2020/12/29 11:39:19;;;;;;;15.15;10.70;;;;;;;5.25;85.88;98142.02;1707988;83;26181;-79
2020/12/29 11:41:52;;;;;;;25.77;19.82;;;;;;;5.27;85.61;98142.63;1705384;81;26136;-79
2020/12/29 11:44:20;;;;;;;15.63;10.43;;;;;;;5.29;85.67;98152.52;1723765;81;27703;-80